createdAt,value
2022-10-13T00:01:44.550Z,101507.91
2022-10-13T00:04:11.272Z,101503.44
2022-10-13T00:06:38.030Z,101499.03
2022-10-13T00:09:04.773Z,101503.41
2022-10-13T00:11:31.616Z,101498.09
2022-10-13T00:14:00.863Z,101505.19
2022-10-13T00:16:27.972Z,101498.94
2022-10-13T00:18:54.897Z,101484.78
2022-10-13T00:21:24.142Z,101483.84
2022-10-13T00:23:52.574Z,101484.72
2022-10-13T00:26:21.633Z,101485.59
2022-10-13T00:28:52.484Z,101485.59
2022-10-13T00:31:20.833Z,101484.69
2022-10-13T00:33:49.262Z,101479.34
2022-10-13T00:36:16.481Z,101485.53
2022-10-13T00:38:43.735Z,101483.75
2022-10-13T00:41:10.591Z,101481.06
2022-10-13T00:44:00.721Z,101489.91
2022-10-13T00:46:32.764Z,101489.88
2022-10-13T00:49:12.111Z,101487.19
2022-10-13T00:51:41.282Z,101477.50
2022-10-13T00:54:10.470Z,101478.34
2022-10-13T00:56:38.536Z,101485.41
2022-10-13T00:59:09.662Z,101484.56
2022-10-13T01:01:36.417Z,101487.22
2022-10-13T01:04:03.119Z,101484.53
2022-10-13T01:06:30.301Z,101480.97
2022-10-13T01:08:56.981Z,101477.47
2022-10-13T01:11:40.618Z,101475.72
2022-10-13T01:14:17.671Z,101475.69
2022-10-13T01:16:50.188Z,101466.88
2022-10-13T01:19:26.088Z,101473.97
2022-10-13T01:22:11.902Z,101472.22
2022-10-13T01:24:43.865Z,101462.50
2022-10-13T01:27:30.380Z,101479.34
2022-10-13T01:30:10.650Z,101472.25
2022-10-13T01:32:48.876Z,101470.47
2022-10-13T01:35:17.925Z,101479.34
2022-10-13T01:37:53.967Z,101465.22
2022-10-13T01:40:40.726Z,101463.44
2022-10-13T01:43:18.165Z,101455.53
2022-10-13T01:45:50.909Z,101452.84
2022-10-13T01:48:18.019Z,101452.88
2022-10-13T01:50:45.580Z,101443.16
2022-10-13T01:53:13.796Z,101444.06
2022-10-13T01:55:51.913Z,101440.50
2022-10-13T01:58:18.687Z,101442.28
2022-10-13T02:00:55.534Z,101439.63
2022-10-13T02:03:27.845Z,101438.72
2022-10-13T02:06:13.321Z,101441.38
2022-10-13T02:08:45.739Z,101427.22
2022-10-13T02:11:17.516Z,101434.31
2022-10-13T02:14:04.081Z,101430.78
2022-10-13T02:16:42.130Z,101428.97
2022-10-13T02:19:12.020Z,101425.47
2022-10-13T02:21:39.328Z,101420.16
2022-10-13T02:24:06.804Z,101426.31
2022-10-13T02:26:34.479Z,101421.00
2022-10-13T02:29:08.455Z,101415.69
2022-10-13T02:31:35.338Z,101414.78
2022-10-13T02:34:02.047Z,101411.25
2022-10-13T02:36:28.749Z,101411.25
2022-10-13T02:38:55.427Z,101405.06
2022-10-13T02:41:22.156Z,101409.47
2022-10-13T02:43:48.871Z,101403.31
2022-10-13T02:46:15.602Z,101400.69
2022-10-13T02:48:42.319Z,101403.31
2022-10-13T02:51:09.016Z,101399.78
2022-10-13T02:53:35.709Z,101400.72
2022-10-13T02:56:02.446Z,101399.81
2022-10-13T02:58:29.152Z,101409.56
2022-10-13T03:01:05.566Z,101406.91
2022-10-13T03:03:32.318Z,101416.66
2022-10-13T03:06:02.694Z,101405.16
2022-10-13T03:08:29.701Z,101415.75
2022-10-13T03:10:57.450Z,101401.63
2022-10-13T03:13:24.165Z,101405.16
2022-10-13T03:15:50.866Z,101400.72
2022-10-13T03:18:17.605Z,101389.19
2022-10-13T03:20:44.297Z,101395.41
2022-10-13T03:23:10.980Z,101394.50
2022-10-13T03:25:38.730Z,101389.16
2022-10-13T03:28:05.441Z,101389.19
2022-10-13T03:30:32.181Z,101393.63
2022-10-13T03:32:58.905Z,101388.31
2022-10-13T03:35:25.622Z,101389.19
2022-10-13T03:37:52.370Z,101392.72
2022-10-13T03:40:19.087Z,101393.63
2022-10-13T03:42:45.827Z,101398.06
2022-10-13T03:45:12.857Z,101401.59
2022-10-13T03:47:39.585Z,101395.44
2022-10-13T03:50:06.864Z,101396.31
2022-10-13T03:52:33.584Z,101391.03
2022-10-13T03:55:01.189Z,101397.22
2022-10-13T03:57:27.901Z,101391.97
2022-10-13T03:59:56.525Z,101391.94
2022-10-13T04:02:23.789Z,101394.63
2022-10-13T04:04:50.501Z,101387.56
2022-10-13T04:07:17.196Z,101385.81
2022-10-13T04:09:43.935Z,101395.53
2022-10-13T04:12:10.645Z,101390.25
2022-10-13T04:14:37.352Z,101394.69
2022-10-13T04:17:04.057Z,101396.47
2022-10-13T04:19:30.745Z,101390.28
2022-10-13T04:21:57.477Z,101392.03
2022-10-13T04:24:24.233Z,101392.06
2022-10-13T04:26:50.953Z,101380.53
2022-10-13T04:29:17.635Z,101392.94
2022-10-13T04:31:44.390Z,101386.78
2022-10-13T04:34:12.114Z,101391.16
2022-10-13T04:36:38.948Z,101391.16
2022-10-13T04:39:05.629Z,101390.31
2022-10-13T04:41:32.319Z,101385.88
2022-10-13T04:44:02.171Z,101378.78
2022-10-13T04:46:28.868Z,101382.34
2022-10-13T04:48:55.628Z,101374.44
2022-10-13T04:51:24.153Z,101367.34
2022-10-13T04:53:56.134Z,101364.72
2022-10-13T04:56:23.209Z,101360.28
2022-10-13T04:58:50.192Z,101374.44
2022-10-13T05:01:22.211Z,101365.53
2022-10-13T05:03:56.331Z,101373.50
2022-10-13T05:06:26.161Z,101370.84
2022-10-13T05:08:52.922Z,101364.63
2022-10-13T05:11:20.456Z,101368.19
2022-10-13T05:13:47.890Z,101368.19
2022-10-13T05:16:17.070Z,101362.88
2022-10-13T05:18:44.319Z,101367.28
2022-10-13T05:21:13.504Z,101361.09
2022-10-13T05:23:40.509Z,101362.88
2022-10-13T05:26:10.145Z,101356.66
2022-10-13T05:28:37.581Z,101348.72
2022-10-13T05:31:15.472Z,101358.50
2022-10-13T05:33:42.956Z,101357.59
2022-10-13T05:36:11.969Z,101353.19
2022-10-13T05:38:38.870Z,101361.19
2022-10-13T05:41:07.626Z,101363.84
2022-10-13T05:43:34.743Z,101355.88
2022-10-13T05:46:01.788Z,101356.75
2022-10-13T05:48:29.087Z,101359.41
2022-10-13T05:50:58.080Z,101355.88
2022-10-13T05:53:25.973Z,101346.13
2022-10-13T05:55:53.391Z,101348.78
2022-10-13T05:58:20.229Z,101345.25
2022-10-13T06:00:47.059Z,101342.59
2022-10-13T06:03:16.263Z,101336.44
2022-10-13T06:05:45.125Z,101332.00
2022-10-13T06:08:11.853Z,101336.44
2022-10-13T06:10:38.582Z,101329.34
2022-10-13T06:13:05.293Z,101334.69
2022-10-13T06:15:32.745Z,101331.16
2022-10-13T06:17:59.491Z,101321.41
2022-10-13T06:20:29.994Z,101328.53
2022-10-13T06:22:56.839Z,101327.63
2022-10-13T06:25:23.563Z,101325.00
2022-10-13T06:27:50.329Z,101325.91
2022-10-13T06:30:17.071Z,101318.84
2022-10-13T06:32:43.775Z,101324.13
2022-10-13T06:35:10.456Z,101329.47
2022-10-13T06:37:37.178Z,101337.47
2022-10-13T06:40:04.380Z,101331.25
2022-10-13T06:42:31.798Z,101327.75
2022-10-13T06:44:58.547Z,101325.97
2022-10-13T06:47:25.375Z,101325.09
2022-10-13T06:49:52.112Z,101315.38
2022-10-13T06:52:19.145Z,101324.25
2022-10-13T06:54:46.122Z,101326.00
2022-10-13T06:57:12.884Z,101319.81
2022-10-13T06:59:39.589Z,101315.38
2022-10-13T07:02:06.542Z,101323.38
2022-10-13T07:04:33.310Z,101327.81
2022-10-13T07:07:00.038Z,101331.34
2022-10-13T07:09:27.217Z,101313.63
2022-10-13T07:11:54.018Z,101320.72
2022-10-13T07:14:20.735Z,101316.28
2022-10-13T07:16:48.449Z,101320.72
2022-10-13T07:19:15.183Z,101308.31
2022-10-13T07:21:41.929Z,101311.00
2022-10-13T07:24:10.036Z,101312.75
2022-10-13T07:26:36.796Z,101322.50
2022-10-13T07:29:03.714Z,101331.38
2022-10-13T07:31:30.475Z,101333.19
2022-10-13T07:33:58.978Z,101327.84
2022-10-13T07:36:25.947Z,101326.06
2022-10-13T07:38:52.642Z,101334.94
2022-10-13T07:41:20.255Z,101338.47
2022-10-13T07:43:46.989Z,101312.75
2022-10-13T07:46:14.209Z,101317.16
2022-10-13T07:48:41.155Z,101310.94
2022-10-13T07:51:11.204Z,101312.72
2022-10-13T07:53:38.702Z,101314.44
2022-10-13T07:56:07.523Z,101309.06
2022-10-13T07:58:38.077Z,101312.59
2022-10-13T08:01:05.711Z,101307.22
2022-10-13T08:03:32.837Z,101301.78
2022-10-13T08:06:00.586Z,101292.00
2022-10-13T08:08:27.780Z,101300.75
2022-10-13T08:10:54.988Z,101293.56
2022-10-13T08:13:21.825Z,101291.69
2022-10-13T08:15:48.579Z,101286.22
2022-10-13T08:18:15.638Z,101286.13
2022-10-13T08:20:44.215Z,101287.81
2022-10-13T08:23:12.258Z,101290.38
2022-10-13T08:25:42.879Z,101286.78
2022-10-13T08:28:18.915Z,101282.28
2022-10-13T08:30:46.081Z,101275.13
2022-10-13T08:33:13.372Z,101266.16
2022-10-13T08:35:40.366Z,101269.63
2022-10-13T08:38:07.604Z,101266.91
2022-10-13T08:40:34.606Z,101266.78
2022-10-13T08:43:06.020Z,101271.94
2022-10-13T08:45:41.761Z,101279.84
2022-10-13T08:48:17.142Z,101269.00
2022-10-13T08:50:45.877Z,101271.50
2022-10-13T08:53:37.403Z,101270.41
2022-10-13T08:56:23.073Z,101259.63
2022-10-13T08:58:50.677Z,101266.63
2022-10-13T09:01:20.614Z,101271.00
2022-10-13T09:04:04.566Z,101272.78
2022-10-13T09:06:39.047Z,101274.50
2022-10-13T09:09:08.629Z,101276.28
2022-10-13T09:11:41.596Z,101273.69
2022-10-13T09:14:10.699Z,101271.97
2022-10-13T09:16:43.482Z,101277.38
2022-10-13T09:19:28.676Z,101272.94
2022-10-13T09:22:23.656Z,101271.16
2022-10-13T09:25:09.177Z,101264.03
2022-10-13T09:27:52.631Z,101277.34
2022-10-13T09:30:42.312Z,101279.88
2022-10-13T09:33:09.058Z,101268.13
2022-10-13T09:35:37.137Z,101266.22
2022-10-13T09:38:05.105Z,101274.13
2022-10-13T09:40:32.350Z,101272.25
2022-10-13T09:43:01.251Z,101279.28
2022-10-13T09:45:30.301Z,101281.91
2022-10-13T09:48:04.336Z,101274.72
2022-10-13T09:50:31.916Z,101265.72
2022-10-13T09:53:21.105Z,101267.44
2022-10-13T09:55:49.499Z,101267.34
2022-10-13T09:58:23.049Z,101263.72
2022-10-13T10:00:51.454Z,101261.84
2022-10-13T10:03:32.527Z,101263.53
2022-10-13T10:06:07.092Z,101263.47
2022-10-13T10:09:09.165Z,101261.59
2022-10-13T10:11:44.344Z,101264.16
2022-10-13T10:14:24.886Z,101250.66
2022-10-13T10:17:23.107Z,101249.66
2022-10-13T10:20:26.739Z,101245.91
2022-10-13T10:23:03.602Z,101245.81
2022-10-13T10:25:33.311Z,101237.63
2022-10-13T10:28:41.545Z,101235.72
2022-10-13T10:31:26.794Z,101244.50
2022-10-13T10:34:18.364Z,101233.69
2022-10-13T10:37:22.707Z,101236.25
2022-10-13T10:40:12.854Z,101242.41
2022-10-13T10:43:21.683Z,101230.66
2022-10-13T10:45:49.348Z,101228.72
2022-10-13T10:48:23.986Z,101227.78
2022-10-13T10:50:51.841Z,101231.28
2022-10-13T10:53:18.511Z,101228.50
2022-10-13T10:55:54.403Z,101230.22
2022-10-13T10:58:44.341Z,101223.06
2022-10-13T11:01:10.978Z,101212.31
2022-10-13T11:03:42.613Z,101208.69
2022-10-13T11:06:12.393Z,101214.94
2022-10-13T11:08:41.818Z,101213.13
2022-10-13T11:11:25.065Z,101210.50
2022-10-13T11:14:22.883Z,101206.94
2022-10-13T11:17:08.864Z,101193.53
2022-10-13T11:19:39.961Z,101190.84
2022-10-13T11:22:06.620Z,101189.00
2022-10-13T11:24:33.230Z,101188.09
2022-10-13T11:27:10.541Z,101181.81
2022-10-13T11:29:43.282Z,101169.25
2022-10-13T11:32:25.617Z,101163.84
2022-10-13T11:35:00.091Z,101165.50
2022-10-13T11:37:34.905Z,101160.91
2022-10-13T11:40:39.022Z,101152.69
2022-10-13T11:43:47.402Z,101155.25
2022-10-13T11:46:41.961Z,101154.25
2022-10-13T11:49:18.064Z,101144.34
2022-10-13T11:52:09.655Z,101138.84
2022-10-13T11:54:45.030Z,101142.34
2022-10-13T11:57:24.388Z,101144.00
2022-10-13T11:59:55.388Z,101152.88
2022-10-13T12:02:26.877Z,101134.88
2022-10-13T12:05:07.130Z,101134.81
2022-10-13T12:07:37.359Z,101130.22
2022-10-13T12:10:07.931Z,101125.66
2022-10-13T12:12:34.771Z,101124.63
2022-10-13T12:15:05.939Z,101127.19
2022-10-13T12:17:38.823Z,101123.41
2022-10-13T12:20:23.515Z,101130.38
2022-10-13T12:22:51.056Z,101126.63
2022-10-13T12:25:19.986Z,101121.09
2022-10-13T12:27:55.160Z,101124.53
2022-10-13T12:30:27.784Z,101119.00
2022-10-13T12:32:57.084Z,101116.22
2022-10-13T12:35:29.721Z,101120.56
2022-10-13T12:37:57.404Z,101125.84
2022-10-13T12:40:30.671Z,101120.41
2022-10-13T12:42:57.496Z,101130.16
2022-10-13T12:45:27.819Z,101114.91
2022-10-13T12:47:54.782Z,101116.69
2022-10-13T12:50:27.963Z,101110.41
2022-10-13T12:53:17.960Z,101119.38
2022-10-13T12:55:59.189Z,101114.91
2022-10-13T12:58:35.768Z,101108.63
2022-10-13T13:01:14.495Z,101113.09
2022-10-13T13:03:42.901Z,101116.59
2022-10-13T13:06:15.705Z,101116.56
2022-10-13T13:08:43.289Z,101113.88
2022-10-13T13:11:24.895Z,101107.50
2022-10-13T13:13:51.626Z,101115.53
2022-10-13T13:16:23.242Z,101111.03
2022-10-13T13:18:50.884Z,101104.75
2022-10-13T13:21:19.561Z,101106.59
2022-10-13T13:23:51.215Z,101097.72
2022-10-13T13:26:24.110Z,101098.63
2022-10-13T13:28:52.614Z,101093.28
2022-10-13T13:31:21.302Z,101087.97
2022-10-13T13:33:48.670Z,101093.44
2022-10-13T13:36:18.362Z,101095.31
2022-10-13T13:38:45.252Z,101091.78
2022-10-13T13:41:12.612Z,101096.25
2022-10-13T13:43:39.455Z,101087.31
2022-10-13T13:46:07.483Z,101094.44
2022-10-13T13:48:34.189Z,101085.50
2022-10-13T13:51:00.937Z,101082.78
2022-10-13T13:53:27.655Z,101087.28
2022-10-13T13:55:54.447Z,101086.28
2022-10-13T13:58:21.345Z,101081.81
2022-10-13T14:00:48.118Z,101086.28
2022-10-13T14:03:19.258Z,101082.72
2022-10-13T14:05:46.273Z,101088.16
2022-10-13T14:08:13.025Z,101084.56
2022-10-13T14:10:40.933Z,101086.41
2022-10-13T14:13:07.668Z,101089.19
2022-10-13T14:15:34.481Z,101086.50
2022-10-13T14:18:01.238Z,101073.22
2022-10-13T14:20:27.953Z,101078.63
2022-10-13T14:22:54.698Z,101077.84
2022-10-13T14:25:21.668Z,101085.00
2022-10-13T14:27:48.394Z,101077.97
2022-10-13T14:30:15.104Z,101074.41
2022-10-13T14:32:41.952Z,101080.78
2022-10-13T14:35:08.815Z,101072.75
2022-10-13T14:37:35.920Z,101069.19
2022-10-13T14:40:03.106Z,101069.19
2022-10-13T14:42:29.828Z,101067.41
2022-10-13T14:44:56.518Z,101068.31
2022-10-13T14:47:23.436Z,101056.78
2022-10-13T14:49:50.320Z,101060.34
2022-10-13T14:52:17.019Z,101056.78
2022-10-13T14:54:45.062Z,101053.16
2022-10-13T14:57:15.665Z,101051.41
2022-10-13T14:59:42.962Z,101061.16
2022-10-13T15:02:13.169Z,101062.94
2022-10-13T15:04:40.071Z,101068.28
2022-10-13T15:07:07.580Z,101064.72
2022-10-13T15:09:45.488Z,101062.03
2022-10-13T15:12:19.595Z,101059.41
2022-10-13T15:14:46.531Z,101059.50
2022-10-13T15:17:13.260Z,101062.19
2022-10-13T15:19:39.962Z,101063.16
2022-10-13T15:22:06.687Z,101057.81
2022-10-13T15:24:33.385Z,101053.44
2022-10-13T15:27:00.091Z,101056.19
2022-10-13T15:29:26.910Z,101050.91
2022-10-13T15:32:07.338Z,101051.84
2022-10-13T15:34:34.099Z,101051.03
2022-10-13T15:37:00.784Z,101059.16
2022-10-13T15:39:27.504Z,101053.84
2022-10-13T15:41:54.257Z,101050.34
2022-10-13T15:44:21.754Z,101045.03
2022-10-13T15:47:06.689Z,101041.53
2022-10-13T15:49:39.257Z,101046.13
2022-10-13T15:52:06.205Z,101039.94
2022-10-13T15:54:33.100Z,101037.34
2022-10-13T15:57:00.385Z,101038.28
2022-10-13T15:59:27.185Z,101042.84
2022-10-13T16:01:53.915Z,101037.63
2022-10-13T16:04:20.647Z,101035.94
2022-10-13T16:06:47.384Z,101029.00
2022-10-13T16:09:14.116Z,101035.44
2022-10-13T16:11:40.910Z,101035.56
2022-10-13T16:14:08.679Z,101035.81
2022-10-13T16:16:35.439Z,101040.50
2022-10-13T16:19:02.270Z,101041.56
2022-10-13T16:21:29.003Z,101043.47
2022-10-13T16:23:55.813Z,101038.22
2022-10-13T16:26:22.581Z,101041.06
2022-10-13T16:28:49.419Z,101041.16
2022-10-13T16:31:17.155Z,101038.53
2022-10-13T16:33:45.081Z,101036.88
2022-10-13T16:36:14.357Z,101044.06
2022-10-13T16:38:42.076Z,101043.28
2022-10-13T16:41:12.209Z,101046.06
2022-10-13T16:43:39.096Z,101049.66
2022-10-13T16:46:08.187Z,101049.75
2022-10-13T16:48:34.908Z,101056.03
2022-10-13T16:51:06.784Z,101055.25
2022-10-13T16:53:34.217Z,101044.63
2022-10-13T16:56:01.025Z,101053.59
2022-10-13T16:58:27.835Z,101046.50
2022-10-13T17:01:02.324Z,101043.88
2022-10-13T17:03:29.090Z,101048.41
2022-10-13T17:05:56.152Z,101044.06
2022-10-13T17:08:22.912Z,101045.06
2022-10-13T17:10:57.347Z,101046.88
2022-10-13T17:13:24.969Z,101050.53
2022-10-13T17:15:53.210Z,101052.41
2022-10-13T17:18:20.253Z,101049.78
2022-10-13T17:21:00.743Z,101051.66
2022-10-13T17:23:28.348Z,101058.00
2022-10-13T17:25:55.806Z,101058.06
2022-10-13T17:28:22.867Z,101045.69
2022-10-13T17:30:59.975Z,101052.91
2022-10-13T17:33:34.312Z,101048.50
2022-10-13T17:36:03.303Z,101049.44
2022-10-13T17:38:30.433Z,101060.22
2022-10-13T17:41:05.585Z,101057.63
2022-10-13T17:43:34.479Z,101060.41
2022-10-13T17:46:35.031Z,101060.44
2022-10-13T17:49:00.687Z,101051.66
2022-10-13T17:51:27.827Z,101055.28
2022-10-13T17:53:54.931Z,101051.78
2022-10-13T17:56:23.808Z,101061.66
2022-10-13T17:58:51.251Z,101052.78
2022-10-13T18:01:23.658Z,101050.19
2022-10-13T18:03:55.951Z,101060.97
2022-10-13T18:06:23.124Z,101053.91
2022-10-13T18:08:52.582Z,101042.41
2022-10-13T18:11:22.648Z,101043.34
2022-10-13T18:13:49.435Z,101048.75
2022-10-13T18:16:18.616Z,101048.78
2022-10-13T18:18:46.714Z,101045.28
2022-10-13T18:21:16.465Z,101046.19
2022-10-13T18:23:43.866Z,101050.69
2022-10-13T18:26:15.988Z,101056.06
2022-10-13T18:28:43.583Z,101056.06
2022-10-13T18:31:12.036Z,101054.34
2022-10-13T18:33:39.270Z,101058.81
2022-10-13T18:36:20.272Z,101062.38
2022-10-13T18:38:47.522Z,101053.47
2022-10-13T18:41:15.116Z,101063.28
2022-10-13T18:43:41.825Z,101059.69
2022-10-13T18:46:08.694Z,101057.03
2022-10-13T18:48:35.412Z,101062.38
2022-10-13T18:51:06.670Z,101056.06
2022-10-13T18:53:37.976Z,101052.50
2022-10-13T18:56:07.355Z,101049.81
2022-10-13T18:58:34.244Z,101060.47
2022-10-13T19:01:09.047Z,101065.75
2022-10-13T19:03:37.109Z,101055.03
2022-10-13T19:06:04.772Z,101050.53
2022-10-13T19:08:31.805Z,101050.44
2022-10-13T19:10:58.772Z,101052.22
2022-10-13T19:13:26.469Z,101052.16
2022-10-13T19:16:02.841Z,101055.69
2022-10-13T19:18:29.727Z,101063.72
2022-10-13T19:20:56.589Z,101057.41
2022-10-13T19:23:23.316Z,101055.63
2022-10-13T19:25:50.084Z,101062.72
2022-10-13T19:28:17.010Z,101066.25
2022-10-13T19:30:43.842Z,101059.09
2022-10-13T19:33:12.509Z,101053.72
2022-10-13T19:35:41.344Z,101059.03
2022-10-13T19:38:08.528Z,101065.25
2022-10-13T19:40:40.059Z,101071.47
2022-10-13T19:43:09.655Z,101067.00
2022-10-13T19:45:36.703Z,101062.56
2022-10-13T19:48:03.502Z,101068.75
2022-10-13T19:50:35.890Z,101075.00
2022-10-13T19:53:02.614Z,101069.63
2022-10-13T19:55:30.473Z,101074.09
2022-10-13T19:57:57.152Z,101066.06
2022-10-13T20:00:23.903Z,101069.63
2022-10-13T20:02:50.675Z,101069.63
2022-10-13T20:05:19.922Z,101072.31
2022-10-13T20:07:49.982Z,101075.00
2022-10-13T20:10:16.794Z,101075.00
2022-10-13T20:12:43.492Z,101080.34
2022-10-13T20:15:11.098Z,101073.19
2022-10-13T20:17:37.839Z,101073.25
2022-10-13T20:20:06.003Z,101069.63
2022-10-13T20:22:33.217Z,101069.63
2022-10-13T20:24:59.968Z,101066.97
2022-10-13T20:27:26.705Z,101072.38
2022-10-13T20:29:53.429Z,101064.34
2022-10-13T20:32:20.119Z,101068.75
2022-10-13T20:34:46.817Z,101070.59
2022-10-13T20:37:13.577Z,101074.16
2022-10-13T20:39:40.938Z,101078.66
2022-10-13T20:42:07.650Z,101069.78
2022-10-13T20:44:34.365Z,101080.53
2022-10-13T20:47:01.106Z,101082.44
2022-10-13T20:49:27.830Z,101075.34
2022-10-13T20:51:54.558Z,101086.13
2022-10-13T20:54:21.258Z,101076.38
2022-10-13T20:56:48.356Z,101076.47
2022-10-13T20:59:15.175Z,101073.81
2022-10-13T21:01:42.230Z,101074.78
2022-10-13T21:04:09.080Z,101067.72
2022-10-13T21:06:36.043Z,101075.78
2022-10-13T21:09:04.280Z,101070.50
2022-10-13T21:11:31.144Z,101074.06
2022-10-13T21:13:57.881Z,101073.22
2022-10-13T21:16:29.378Z,101065.22
2022-10-13T21:18:57.068Z,101064.34
2022-10-13T21:21:26.432Z,101065.28
2022-10-13T21:23:55.251Z,101061.72
2022-10-13T21:26:22.835Z,101060.88
2022-10-13T21:28:50.287Z,101059.16
2022-10-13T21:31:18.599Z,101065.38
2022-10-13T21:33:45.286Z,101059.16
2022-10-13T21:36:18.308Z,101060.94
2022-10-13T21:38:45.870Z,101057.44
2022-10-13T21:41:13.463Z,101056.56
2022-10-13T21:43:40.448Z,101053.91
2022-10-13T21:46:19.116Z,101057.47
2022-10-13T21:48:47.150Z,101051.25
2022-10-13T21:51:15.296Z,101056.59
2022-10-13T21:53:42.271Z,101057.53
2022-10-13T21:56:11.458Z,101060.19
2022-10-13T21:58:38.378Z,101051.28
2022-10-13T22:01:06.140Z,101060.19
2022-10-13T22:03:33.484Z,101061.97
2022-10-13T22:06:05.663Z,101062.91
2022-10-13T22:08:38.351Z,101057.56
2022-10-13T22:11:07.163Z,101062.03
2022-10-13T22:13:34.056Z,101052.25
2022-10-13T22:16:11.872Z,101054.03
2022-10-13T22:18:38.580Z,101051.38
2022-10-13T22:21:07.346Z,101046.91
2022-10-13T22:23:34.081Z,101048.69
2022-10-13T22:26:00.801Z,101054.03
2022-10-13T22:28:27.597Z,101050.47
2022-10-13T22:30:54.370Z,101056.72
2022-10-13T22:33:21.080Z,101047.81
2022-10-13T22:35:47.805Z,101046.97
2022-10-13T22:38:14.629Z,101037.16
2022-10-13T22:40:41.745Z,101036.28
2022-10-13T22:43:08.515Z,101035.41
2022-10-13T22:45:35.344Z,101025.63
2022-10-13T22:48:02.241Z,101030.06
2022-10-13T22:50:29.293Z,101037.19
2022-10-13T22:52:56.425Z,101035.41
2022-10-13T22:55:23.118Z,101033.63
2022-10-13T22:57:49.839Z,101034.53
2022-10-13T23:00:16.600Z,101033.63
2022-10-13T23:02:43.316Z,101032.75
2022-10-13T23:05:10.010Z,101032.75
2022-10-13T23:07:36.739Z,101037.25
2022-10-13T23:10:03.764Z,101031.00
2022-10-13T23:12:30.497Z,101031.91
2022-10-13T23:14:57.232Z,101027.44
2022-10-13T23:17:24.245Z,101035.47
2022-10-13T23:19:51.158Z,101039.03
2022-10-13T23:22:17.861Z,101031.00
2022-10-13T23:24:44.562Z,101030.97
2022-10-13T23:27:11.285Z,101040.75
2022-10-13T23:29:37.987Z,101038.97
2022-10-13T23:32:09.571Z,101038.13
2022-10-13T23:34:36.699Z,101029.25
2022-10-13T23:37:03.423Z,101031.03
2022-10-13T23:39:30.175Z,101012.38
2022-10-13T23:41:57.059Z,101014.19
2022-10-13T23:44:23.778Z,101020.41
2022-10-13T23:46:51.041Z,101019.53
2022-10-13T23:49:17.760Z,101021.38
2022-10-13T23:51:44.567Z,101019.59
2022-10-13T23:54:11.406Z,101018.72
2022-10-13T23:56:38.657Z,101012.47
2022-10-13T23:59:05.825Z,101021.41
